Time;durP1;ratioP1;P1;durP2;ratioP2;P2;SDS_P1;SDS_P2;PMS_P1;PMS_P2;Temp;Humidity;BMP_temperature;BMP_pressure;BME280_temperature;BME280_humidity;BME280_pressure;Samples;Min_cycle;Max_cycle;Signal;HPM_P1;HPM_P2
2024/01/23 00:01:11;;;;;;;;;;;4.50;99.90;;;;;;4887561;29;19916;-88
2024/01/23 00:03:36;;;;;;;;;;;4.40;99.90;;;;;;4901087;29;20394;-88
2024/01/23 00:06:02;;;;;;;;;;;4.40;99.90;;;;;;4884712;29;19922;-87
2024/01/23 00:08:27;;;;;;;;;;;4.40;99.90;;;;;;4900789;29;20578;-88
2024/01/23 00:10:53;;;;;;;;;;;4.50;99.90;;;;;;4885352;29;20002;-87
2024/01/23 00:13:19;;;;;;;;;;;4.40;99.90;;;;;;4883826;29;19919;-88
2024/01/23 00:15:44;;;;;;;;;;;4.40;99.90;;;;;;4884251;29;19915;-88
2024/01/23 00:18:10;;;;;;;;;;;4.40;99.90;;;;;;4885556;29;19938;-87
2024/01/23 00:20:35;;;;;;;;;;;4.40;99.90;;;;;;4884841;29;19912;-88
2024/01/23 00:23:01;;;;;;;;;;;4.50;99.90;;;;;;4884603;29;19916;-89
2024/01/23 00:25:27;;;;;;;;;;;4.40;99.90;;;;;;4885092;29;20428;-88
2024/01/23 00:27:52;;;;;;;;;;;4.50;99.90;;;;;;4900895;29;20407;-88
2024/01/23 00:30:18;;;;;;;;;;;4.50;99.90;;;;;;4870483;29;19915;-87
2024/01/23 00:32:43;;;;;;;;;;;4.50;99.90;;;;;;4885637;29;20372;-88
2024/01/23 00:35:09;;;;;;;;;;;4.50;99.90;;;;;;4901146;29;19931;-88
2024/01/23 00:37:34;;;;;;;;;;;4.50;99.90;;;;;;4886981;29;20279;-87
2024/01/23 00:40:01;;;;;;;;;;;4.50;99.90;;;;;;4886134;29;19922;-87
2024/01/23 00:42:26;;;;;;;;;;;4.60;99.90;;;;;;4884058;29;19916;-87
2024/01/23 00:44:53;;;;;;;;;;;4.60;99.90;;;;;;4879666;29;19926;-87
2024/01/23 00:47:19;;;;;;;;;;;4.60;99.90;;;;;;4865866;29;19923;-88
2024/01/23 00:49:45;;;;;;;;;;;4.60;99.90;;;;;;4865339;29;19916;-88
2024/01/23 00:52:11;;;;;;;;;;;4.60;99.90;;;;;;4865795;29;19916;-88
2024/01/23 00:54:37;;;;;;;;;;;4.60;99.90;;;;;;4865610;29;19958;-88
2024/01/23 00:57:05;;;;;;;;;;;4.60;99.90;;;;;;4864538;29;19920;-87
2024/01/23 00:59:31;;;;;;;;;;;4.60;99.90;;;;;;4865181;29;20286;-87
2024/01/23 01:01:56;;;;;;;;;;;4.60;99.90;;;;;;4881490;29;20007;-88
2024/01/23 01:04:22;;;;;;;;;;;4.60;99.90;;;;;;4865587;29;19916;-88
2024/01/23 01:06:48;;;;;;;;;;;4.60;99.90;;;;;;4881624;29;19919;-88
2024/01/23 01:09:13;;;;;;;;;;;4.60;99.90;;;;;;4869253;29;20015;-88
2024/01/23 01:11:39;;;;;;;;;;;4.50;99.90;;;;;;4869478;29;19920;-87
2024/01/23 01:14:04;;;;;;;;;;;4.60;99.90;;;;;;4868910;29;19919;-87
2024/01/23 01:16:30;;;;;;;;;;;4.60;99.90;;;;;;4868707;29;19915;-87
2024/01/23 01:18:56;;;;;;;;;;;4.50;99.90;;;;;;4868780;29;20432;-88
2024/01/23 01:21:22;;;;;;;;;;;4.50;99.90;;;;;;4868318;29;20291;-87
2024/01/23 01:23:48;;;;;;;;;;;4.50;99.90;;;;;;4869040;29;19916;-88
2024/01/23 01:26:13;;;;;;;;;;;4.40;99.90;;;;;;4868062;29;20372;-87
2024/01/23 01:28:39;;;;;;;;;;;4.50;99.90;;;;;;4868457;29;19955;-87
2024/01/23 01:31:04;;;;;;;;;;;4.40;99.90;;;;;;4868197;29;19926;-88
2024/01/23 01:33:30;;;;;;;;;;;4.40;99.90;;;;;;4868258;29;19939;-88
2024/01/23 01:35:56;;;;;;;;;;;4.50;99.90;;;;;;4868589;29;19945;-88
2024/01/23 01:38:21;;;;;;;;;;;4.50;99.90;;;;;;4868426;29;19923;-87
2024/01/23 01:40:47;;;;;;;;;;;4.50;99.90;;;;;;4867372;29;20380;-88
2024/01/23 01:43:25;;;;;;;;;;;4.50;99.90;;;;;;4868451;29;19931;-88
2024/01/23 01:46:00;;;;;;;;;;;4.50;99.90;;;;;;4867771;29;19920;-88
2024/01/23 01:48:26;;;;;;;;;;;4.50;99.90;;;;;;4867822;29;19922;-88
2024/01/23 01:50:51;;;;;;;;;;;4.60;99.90;;;;;;4867568;29;19919;-88
2024/01/23 01:53:17;;;;;;;;;;;4.60;99.90;;;;;;4867982;29;19940;-88
2024/01/23 01:55:43;;;;;;;;;;;4.50;99.90;;;;;;4868337;29;19920;-88
2024/01/23 01:58:09;;;;;;;;;;;4.60;99.90;;;;;;4883832;29;19915;-87
2024/01/23 02:00:35;;;;;;;;;;;4.50;99.90;;;;;;4867881;29;19920;-88
2024/01/23 02:03:01;;;;;;;;;;;4.50;99.90;;;;;;4867875;29;20054;-88
2024/01/23 02:05:26;;;;;;;;;;;4.50;99.90;;;;;;4867665;29;19924;-87
2024/01/23 02:07:52;;;;;;;;;;;4.50;99.90;;;;;;4883327;29;19920;-88
2024/01/23 02:10:17;;;;;;;;;;;4.40;99.90;;;;;;4868068;29;19962;-87
2024/01/23 02:12:43;;;;;;;;;;;4.30;99.90;;;;;;4867560;29;19923;-87
2024/01/23 02:15:08;;;;;;;;;;;4.30;99.90;;;;;;4867363;29;19971;-88
2024/01/23 02:17:34;;;;;;;;;;;4.30;99.90;;;;;;4883211;29;19916;-87
2024/01/23 02:20:00;;;;;;;;;;;4.40;99.90;;;;;;4866576;29;19916;-88
2024/01/23 02:22:25;;;;;;;;;;;4.50;99.90;;;;;;4867747;29;19916;-87
2024/01/23 02:24:51;;;;;;;;;;;4.40;99.90;;;;;;4883082;29;19916;-89
2024/01/23 02:27:17;;;;;;;;;;;4.50;99.90;;;;;;4867782;29;20283;-88
2024/01/23 02:29:42;;;;;;;;;;;4.50;99.90;;;;;;4866538;29;19931;-88
2024/01/23 02:32:08;;;;;;;;;;;4.60;99.90;;;;;;4866763;29;20345;-87
2024/01/23 02:34:33;;;;;;;;;;;4.50;99.90;;;;;;4867822;29;19916;-89
2024/01/23 02:37:00;;;;;;;;;;;4.50;99.90;;;;;;4867473;29;19916;-88
2024/01/23 02:39:27;;;;;;;;;;;4.50;99.90;;;;;;4883198;29;19916;-88
2024/01/23 02:41:53;;;;;;;;;;;4.60;99.90;;;;;;4867940;29;19964;-87
2024/01/23 02:44:18;;;;;;;;;;;4.60;99.90;;;;;;4852166;29;19923;-87
2024/01/23 02:46:44;;;;;;;;;;;4.60;99.90;;;;;;4867248;29;20645;-88
2024/01/23 02:49:09;;;;;;;;;;;4.50;99.90;;;;;;4852030;29;19923;-88
2024/01/23 02:51:35;;;;;;;;;;;4.50;99.90;;;;;;4867586;29;19916;-89
2024/01/23 02:54:01;;;;;;;;;;;4.40;99.90;;;;;;4883167;29;19919;-87
2024/01/23 02:56:26;;;;;;;;;;;4.40;99.90;;;;;;4867590;29;19916;-88
2024/01/23 02:58:52;;;;;;;;;;;4.40;99.90;;;;;;4867375;29;19955;-88
2024/01/23 03:01:17;;;;;;;;;;;4.30;99.90;;;;;;4867200;29;19916;-88
2024/01/23 03:03:43;;;;;;;;;;;4.20;99.90;;;;;;4867495;29;19963;-88
2024/01/23 03:06:09;;;;;;;;;;;4.20;99.90;;;;;;4868173;29;19927;-89
2024/01/23 03:08:34;;;;;;;;;;;4.20;99.90;;;;;;4868439;29;19899;-88
2024/01/23 03:11:01;;;;;;;;;;;4.20;99.90;;;;;;4867317;29;19920;-88
2024/01/23 03:13:26;;;;;;;;;;;4.10;99.90;;;;;;4882603;29;19922;-88
2024/01/23 03:15:53;;;;;;;;;;;4.00;99.90;;;;;;4882372;29;19923;-86
2024/01/23 03:18:18;;;;;;;;;;;4.00;99.90;;;;;;4881738;29;19919;-86
2024/01/23 03:20:46;;;;;;;;;;;3.90;99.90;;;;;;4866346;29;19916;-87
2024/01/23 03:23:11;;;;;;;;;;;3.90;99.90;;;;;;4867206;29;19916;-88
2024/01/23 03:25:37;;;;;;;;;;;3.80;99.90;;;;;;4867255;29;19920;-87
2024/01/23 03:28:03;;;;;;;;;;;3.70;99.90;;;;;;4867188;29;19919;-88
2024/01/23 03:30:29;;;;;;;;;;;3.60;99.90;;;;;;4867471;29;19923;-88
2024/01/23 03:32:55;;;;;;;;;;;3.50;99.90;;;;;;4867559;29;20380;-88
2024/01/23 03:35:20;;;;;;;;;;;3.50;99.90;;;;;;4865953;29;19923;-88
2024/01/23 03:37:46;;;;;;;;;;;3.50;99.90;;;;;;4865200;29;19916;-87
2024/01/23 03:40:11;;;;;;;;;;;3.50;99.90;;;;;;4881556;29;20288;-87
2024/01/23 03:42:37;;;;;;;;;;;3.50;99.90;;;;;;4866455;29;19916;-87
2024/01/23 03:45:03;;;;;;;;;;;3.50;99.90;;;;;;4866721;29;20488;-87
2024/01/23 03:47:28;;;;;;;;;;;3.50;99.90;;;;;;4867146;29;19971;-87
2024/01/23 03:49:54;;;;;;;;;;;3.50;99.90;;;;;;4867074;29;19902;-87
2024/01/23 03:52:20;;;;;;;;;;;3.40;99.90;;;;;;4883454;29;19900;-87
2024/01/23 03:54:45;;;;;;;;;;;3.50;99.90;;;;;;4902254;29;19958;-87
2024/01/23 03:57:11;;;;;;;;;;;3.60;99.90;;;;;;4886611;29;19923;-86
2024/01/23 03:59:37;;;;;;;;;;;3.60;99.90;;;;;;4886427;29;19915;-87
2024/01/23 04:02:03;;;;;;;;;;;3.60;99.90;;;;;;4869169;29;19920;-87
2024/01/23 04:04:28;;;;;;;;;;;3.60;99.90;;;;;;4883917;29;20006;-87
2024/01/23 04:06:54;;;;;;;;;;;3.60;99.90;;;;;;4883401;29;19934;-87
2024/01/23 04:09:19;;;;;;;;;;;3.70;99.90;;;;;;4851049;29;19963;-87
2024/01/23 04:11:46;;;;;;;;;;;3.70;99.90;;;;;;4866073;29;19966;-87
2024/01/23 04:14:12;;;;;;;;;;;3.70;99.90;;;;;;4866200;29;20011;-86
2024/01/23 04:16:37;;;;;;;;;;;3.70;99.90;;;;;;4866253;29;20368;-87
2024/01/23 04:19:03;;;;;;;;;;;3.70;99.90;;;;;;4865616;29;20007;-88
2024/01/23 04:21:29;;;;;;;;;;;3.70;99.90;;;;;;4865299;29;19963;-88
2024/01/23 04:23:55;;;;;;;;;;;3.80;99.90;;;;;;4865670;29;19924;-87
2024/01/23 04:26:20;;;;;;;;;;;3.80;99.90;;;;;;4864946;29;19919;-87
2024/01/23 04:28:47;;;;;;;;;;;3.80;99.90;;;;;;4864888;29;19916;-86
2024/01/23 04:31:13;;;;;;;;;;;3.80;99.90;;;;;;4864919;29;20384;-87
2024/01/23 04:33:39;;;;;;;;;;;3.90;99.90;;;;;;4896410;29;19907;-86
2024/01/23 04:36:05;;;;;;;;;;;3.80;99.90;;;;;;4864778;29;19915;-87
2024/01/23 04:38:31;;;;;;;;;;;3.80;99.90;;;;;;4881840;29;19916;-88
2024/01/23 04:40:56;;;;;;;;;;;3.80;99.90;;;;;;4864348;29;19916;-86
2024/01/23 04:43:22;;;;;;;;;;;3.90;99.90;;;;;;4863370;29;20014;-87
2024/01/23 04:45:47;;;;;;;;;;;3.90;99.90;;;;;;4880445;29;19920;-88
2024/01/23 04:48:13;;;;;;;;;;;3.90;99.90;;;;;;4865391;29;19920;-87
2024/01/23 04:50:38;;;;;;;;;;;3.90;99.90;;;;;;4865544;29;20727;-87
2024/01/23 04:53:04;;;;;;;;;;;3.90;99.90;;;;;;4880646;29;19915;-87
2024/01/23 04:55:29;;;;;;;;;;;3.90;99.90;;;;;;4864990;29;19920;-87
2024/01/23 04:57:55;;;;;;;;;;;3.90;99.90;;;;;;4865362;29;19972;-88
2024/01/23 05:00:21;;;;;;;;;;;3.90;99.90;;;;;;4880686;29;20388;-87
2024/01/23 05:02:46;;;;;;;;;;;3.90;99.90;;;;;;4865451;29;19964;-88
2024/01/23 05:05:12;;;;;;;;;;;3.90;99.90;;;;;;4865429;29;19920;-87
2024/01/23 05:07:37;;;;;;;;;;;3.90;99.90;;;;;;4865405;29;20608;-87
2024/01/23 05:10:04;;;;;;;;;;;3.90;99.90;;;;;;4881004;29;19920;-89
2024/01/23 05:12:30;;;;;;;;;;;3.90;99.90;;;;;;4866126;29;19916;-87
2024/01/23 05:14:55;;;;;;;;;;;3.90;99.90;;;;;;4866028;29;19915;-87
2024/01/23 05:17:21;;;;;;;;;;;3.90;99.90;;;;;;4865251;29;19961;-87
2024/01/23 05:19:46;;;;;;;;;;;3.90;99.90;;;;;;4866132;29;19920;-88
2024/01/23 05:22:12;;;;;;;;;;;3.90;99.90;;;;;;4865640;29;19920;-89
2024/01/23 05:24:38;;;;;;;;;;;3.90;99.90;;;;;;4865348;29;20397;-87
2024/01/23 05:27:03;;;;;;;;;;;3.80;99.90;;;;;;4864964;29;19920;-87
2024/01/23 05:29:32;;;;;;;;;;;3.90;99.90;;;;;;4865433;29;19916;-88
2024/01/23 05:31:58;;;;;;;;;;;3.90;99.90;;;;;;4865727;29;19923;-87
2024/01/23 05:34:23;;;;;;;;;;;3.90;99.90;;;;;;4866134;29;19916;-88
2024/01/23 05:36:49;;;;;;;;;;;3.90;99.90;;;;;;4866158;29;19967;-88
2024/01/23 05:39:16;;;;;;;;;;;3.90;99.90;;;;;;4866578;29;19916;-87
2024/01/23 05:41:42;;;;;;;;;;;3.90;99.90;;;;;;4881267;29;19939;-89
2024/01/23 05:44:07;;;;;;;;;;;3.90;99.90;;;;;;4865588;29;19992;-88
2024/01/23 05:46:35;;;;;;;;;;;3.90;99.90;;;;;;4880767;29;20368;-89
2024/01/23 05:49:00;;;;;;;;;;;3.90;99.90;;;;;;4864766;29;20060;-87
2024/01/23 05:51:26;;;;;;;;;;;3.90;99.90;;;;;;4865338;29;19967;-86
2024/01/23 05:53:52;;;;;;;;;;;3.90;99.90;;;;;;4867203;29;19927;-88
2024/01/23 05:56:17;;;;;;;;;;;3.90;99.90;;;;;;4868377;29;19998;-87
2024/01/23 05:58:43;;;;;;;;;;;3.90;99.90;;;;;;4884040;29;20394;-87
2024/01/23 06:01:09;;;;;;;;;;;3.90;99.90;;;;;;4868609;29;19916;-87
2024/01/23 06:03:34;;;;;;;;;;;3.90;99.90;;;;;;4868594;29;19916;-87
2024/01/23 06:06:00;;;;;;;;;;;3.90;99.90;;;;;;4868060;29;19926;-87
2024/01/23 06:08:25;;;;;;;;;;;3.90;99.90;;;;;;4884695;29;19916;-86
2024/01/23 06:10:51;;;;;;;;;;;3.90;99.90;;;;;;4867259;29;19916;-85
2024/01/23 06:13:18;;;;;;;;;;;3.80;99.90;;;;;;4868319;29;19916;-86
2024/01/23 06:15:44;;;;;;;;;;;3.80;99.90;;;;;;4867745;29;20261;-86
2024/01/23 06:18:10;;;;;;;;;;;3.80;99.90;;;;;;4868137;29;19916;-87
2024/01/23 06:20:37;;;;;;;;;;;3.80;99.90;;;;;;4867684;29;19920;-87
2024/01/23 06:23:02;;;;;;;;;;;3.90;99.90;;;;;;4868154;29;19922;-86
2024/01/23 06:25:29;;;;;;;;;;;3.90;99.90;;;;;;4867624;29;19920;-87
2024/01/23 06:27:55;;;;;;;;;;;3.90;99.90;;;;;;4867591;29;20014;-86
2024/01/23 06:30:20;;;;;;;;;;;3.90;99.90;;;;;;4867645;29;20064;-86
2024/01/23 06:32:46;;;;;;;;;;;3.90;99.90;;;;;;4867862;29;19999;-87
2024/01/23 06:35:12;;;;;;;;;;;3.90;99.90;;;;;;4867344;29;19915;-86
2024/01/23 06:37:37;;;;;;;;;;;3.90;99.90;;;;;;4867653;29;19920;-86
2024/01/23 06:40:04;;;;;;;;;;;3.90;99.90;;;;;;4867789;29;20372;-86
2024/01/23 06:42:30;;;;;;;;;;;3.90;99.90;;;;;;4868083;29;19920;-86
2024/01/23 06:44:55;;;;;;;;;;;3.90;99.90;;;;;;4867057;29;19912;-88
2024/01/23 06:47:21;;;;;;;;;;;3.90;99.90;;;;;;4867483;29;19983;-85
2024/01/23 06:49:47;;;;;;;;;;;3.90;99.90;;;;;;4867951;29;19951;-87
2024/01/23 06:52:13;;;;;;;;;;;3.90;99.90;;;;;;4882558;29;19920;-86
2024/01/23 06:54:39;;;;;;;;;;;3.90;99.90;;;;;;4867121;29;19923;-86
2024/01/23 06:57:04;;;;;;;;;;;3.80;99.90;;;;;;4867589;29;19923;-86
2024/01/23 06:59:30;;;;;;;;;;;3.80;99.90;;;;;;4883397;29;19920;-87
2024/01/23 07:01:56;;;;;;;;;;;3.80;99.90;;;;;;4882539;29;19916;-86
2024/01/23 07:04:21;;;;;;;;;;;3.80;99.90;;;;;;4867421;29;19912;-87
2024/01/23 07:06:47;;;;;;;;;;;3.80;99.90;;;;;;4866227;29;19923;-86
2024/01/23 07:09:13;;;;;;;;;;;3.90;99.90;;;;;;4869059;29;20269;-86
2024/01/23 07:11:41;;;;;;;;;;;3.80;99.90;;;;;;4867252;29;19920;-86
2024/01/23 07:14:07;;;;;;;;;;;3.80;99.90;;;;;;4882309;29;19982;-85
2024/01/23 07:16:33;;;;;;;;;;;3.90;99.90;;;;;;4881442;29;20715;-86
2024/01/23 07:18:59;;;;;;;;;;;3.80;99.90;;;;;;4849804;29;19920;-86
2024/01/23 07:21:24;;;;;;;;;;;3.80;99.90;;;;;;4865043;29;19960;-86
2024/01/23 07:23:50;;;;;;;;;;;3.70;99.90;;;;;;4850312;29;19920;-85
2024/01/23 07:26:16;;;;;;;;;;;3.70;99.90;;;;;;4866363;29;19966;-86
2024/01/23 07:28:41;;;;;;;;;;;3.70;99.90;;;;;;4866939;29;19924;-85
2024/01/23 07:31:07;;;;;;;;;;;3.70;99.90;;;;;;4865918;29;20009;-86
2024/01/23 07:33:33;;;;;;;;;;;3.60;99.90;;;;;;4864966;29;19924;-87
2024/01/23 07:35:58;;;;;;;;;;;3.50;99.90;;;;;;4864660;29;20254;-86
2024/01/23 07:38:24;;;;;;;;;;;3.40;99.90;;;;;;4864815;29;19920;-85
2024/01/23 07:40:49;;;;;;;;;;;3.40;99.90;;;;;;4849218;29;19915;-86
2024/01/23 07:43:16;;;;;;;;;;;3.40;99.90;;;;;;4864499;29;19927;-86
2024/01/23 07:45:42;;;;;;;;;;;3.30;99.90;;;;;;4864530;29;19928;-86
2024/01/23 07:48:07;;;;;;;;;;;3.20;99.90;;;;;;4864608;29;19990;-86
2024/01/23 07:50:33;;;;;;;;;;;3.20;99.90;;;;;;4879923;29;20368;-86
2024/01/23 07:52:58;;;;;;;;;;;3.20;99.90;;;;;;4864755;29;20027;-87
2024/01/23 07:55:24;;;;;;;;;;;3.20;99.90;;;;;;4864944;29;19975;-86
2024/01/23 07:57:50;;;;;;;;;;;3.30;99.90;;;;;;4879874;29;19951;-85
2024/01/23 08:00:18;;;;;;;;;;;3.40;99.90;;;;;;4848376;29;19922;-85
2024/01/23 08:02:44;;;;;;;;;;;3.30;99.90;;;;;;4863970;29;19987;-86
2024/01/23 08:05:10;;;;;;;;;;;3.30;99.90;;;;;;4863855;29;19916;-86
2024/01/23 08:07:35;;;;;;;;;;;3.30;99.90;;;;;;4863334;29;19930;-86
2024/01/23 08:10:01;;;;;;;;;;;3.30;99.90;;;;;;4879033;29;19922;-86
2024/01/23 08:12:26;;;;;;;;;;;3.30;99.90;;;;;;4879820;29;19915;-86
2024/01/23 08:14:52;;;;;;;;;;;3.30;99.90;;;;;;4849173;29;20074;-86
2024/01/23 08:17:19;;;;;;;;;;;3.40;99.90;;;;;;4863311;29;20429;-86
2024/01/23 08:19:45;;;;;;;;;;;3.50;99.90;;;;;;4862376;29;20650;-87
2024/01/23 08:22:11;;;;;;;;;;;3.60;99.90;;;;;;4863258;29;20010;-86
2024/01/23 08:24:36;;;;;;;;;;;3.60;99.90;;;;;;4863600;29;20027;-86
2024/01/23 08:27:03;;;;;;;;;;;3.60;99.90;;;;;;4863723;29;20416;-85
2024/01/23 08:29:28;;;;;;;;;;;3.60;99.90;;;;;;4878872;29;20320;-86
2024/01/23 08:31:54;;;;;;;;;;;3.60;99.90;;;;;;4879274;29;19930;-86
2024/01/23 08:34:20;;;;;;;;;;;3.70;99.90;;;;;;4880445;29;20006;-86
2024/01/23 08:36:45;;;;;;;;;;;3.70;99.90;;;;;;4862950;29;19968;-87
2024/01/23 08:39:11;;;;;;;;;;;3.70;99.90;;;;;;4879729;29;19920;-86
2024/01/23 08:41:36;;;;;;;;;;;3.80;99.90;;;;;;4878861;29;19922;-86
2024/01/23 08:44:02;;;;;;;;;;;3.80;99.90;;;;;;4863023;29;20712;-85
2024/01/23 08:46:29;;;;;;;;;;;3.90;99.90;;;;;;4878487;29;19931;-86
2024/01/23 08:48:54;;;;;;;;;;;4.00;99.90;;;;;;4863305;29;19931;-86
2024/01/23 08:51:24;;;;;;;;;;;4.00;99.90;;;;;;4863330;29;20369;-86
2024/01/23 08:53:52;;;;;;;;;;;4.00;99.90;;;;;;4863649;29;19916;-87
2024/01/23 08:56:20;;;;;;;;;;;4.00;99.90;;;;;;4863657;29;19912;-86
2024/01/23 08:58:50;;;;;;;;;;;4.00;99.90;;;;;;4863754;29;19916;-85
2024/01/23 09:01:16;;;;;;;;;;;3.90;99.90;;;;;;4862208;29;19934;-86
2024/01/23 09:03:42;;;;;;;;;;;3.80;99.90;;;;;;4862911;29;20342;-87
2024/01/23 09:06:09;;;;;;;;;;;3.70;99.90;;;;;;4862733;29;19932;-86
2024/01/23 09:08:35;;;;;;;;;;;3.60;99.90;;;;;;4862544;29;19927;-86
2024/01/23 09:11:01;;;;;;;;;;;3.70;99.90;;;;;;4862936;29;19920;-86
2024/01/23 09:13:33;;;;;;;;;;;3.70;99.90;;;;;;4862948;29;20010;-86
2024/01/23 09:15:59;;;;;;;;;;;3.80;99.90;;;;;;4863094;29;20014;-86
2024/01/23 09:18:26;;;;;;;;;;;3.80;99.90;;;;;;4863579;29;19923;-86
2024/01/23 09:20:53;;;;;;;;;;;3.90;99.90;;;;;;4862702;29;19959;-86
2024/01/23 09:23:18;;;;;;;;;;;4.10;99.90;;;;;;4862490;29;20275;-86
2024/01/23 09:25:44;;;;;;;;;;;4.20;99.90;;;;;;4862239;29;20022;-86
2024/01/23 09:28:09;;;;;;;;;;;4.10;99.90;;;;;;4861894;29;19916;-86
2024/01/23 09:30:35;;;;;;;;;;;4.30;99.90;;;;;;4866189;29;20465;-86
2024/01/23 09:33:02;;;;;;;;;;;4.30;99.90;;;;;;4881673;29;19915;-86
2024/01/23 09:35:28;;;;;;;;;;;4.20;99.90;;;;;;4865514;29;20372;-86
2024/01/23 09:37:54;;;;;;;;;;;4.30;99.90;;;;;;4865655;29;19975;-86
2024/01/23 09:40:20;;;;;;;;;;;4.30;99.90;;;;;;4865674;29;19916;-86
2024/01/23 09:42:46;;;;;;;;;;;4.40;99.90;;;;;;4866030;29;19927;-85
2024/01/23 09:45:17;;;;;;;;;;;4.60;99.90;;;;;;4865617;29;19919;-86
2024/01/23 09:47:44;;;;;;;;;;;4.80;99.90;;;;;;4866033;29;19920;-86
2024/01/23 09:50:11;;;;;;;;;;;5.00;99.90;;;;;;4866353;29;19922;-86
2024/01/23 09:52:37;;;;;;;;;;;5.00;99.90;;;;;;4850180;29;20312;-87
2024/01/23 09:55:03;;;;;;;;;;;5.20;99.90;;;;;;4865022;29;19919;-86
2024/01/23 09:57:29;;;;;;;;;;;5.30;99.90;;;;;;4865237;29;20014;-86
2024/01/23 09:59:55;;;;;;;;;;;5.30;99.90;;;;;;4866590;29;19973;-86
2024/01/23 10:02:21;;;;;;;;;;;5.40;99.90;;;;;;4865802;29;20010;-86
2024/01/23 10:04:47;;;;;;;;;;;5.50;99.90;;;;;;4865474;29;20610;-86
2024/01/23 10:07:13;;;;;;;;;;;5.60;99.90;;;;;;4865515;29;20353;-86
2024/01/23 10:09:44;;;;;;;;;;;5.30;99.90;;;;;;4865611;29;20006;-86
2024/01/23 10:12:10;;;;;;;;;;;5.30;99.90;;;;;;4866103;29;19919;-87
2024/01/23 10:14:41;;;;;;;;;;;5.30;99.90;;;;;;4866384;29;20379;-87
2024/01/23 10:17:06;;;;;;;;;;;5.30;99.90;;;;;;4865815;29;19972;-86
2024/01/23 10:19:32;;;;;;;;;;;5.80;99.90;;;;;;4866214;29;20644;-86
2024/01/23 10:21:58;;;;;;;;;;;6.00;99.90;;;;;;4865975;29;20037;-86
2024/01/23 10:24:23;;;;;;;;;;;6.20;99.90;;;;;;4866457;29;19968;-86
2024/01/23 10:26:49;;;;;;;;;;;6.30;99.90;;;;;;4867530;29;20014;-87
2024/01/23 10:29:14;;;;;;;;;;;6.30;99.90;;;;;;4865651;29;19920;-86
2024/01/23 10:31:41;;;;;;;;;;;6.10;99.90;;;;;;4865464;29;19919;-86
2024/01/23 10:34:10;;;;;;;;;;;6.00;99.90;;;;;;4865549;29;19919;-86
2024/01/23 10:36:35;;;;;;;;;;;6.00;99.90;;;;;;4865375;29;19999;-87
2024/01/23 10:39:01;;;;;;;;;;;5.90;99.90;;;;;;4865786;29;20051;-86
2024/01/23 10:41:28;;;;;;;;;;;6.00;99.90;;;;;;4864002;29;20476;-85
2024/01/23 10:43:54;;;;;;;;;;;6.10;99.90;;;;;;4865529;29;19919;-86
2024/01/23 10:46:23;;;;;;;;;;;6.10;99.90;;;;;;4865787;29;20380;-86
2024/01/23 10:48:49;;;;;;;;;;;5.90;99.90;;;;;;4881370;29;20341;-86
2024/01/23 10:51:21;;;;;;;;;;;5.90;99.90;;;;;;4865023;29;19916;-86
2024/01/23 10:53:57;;;;;;;;;;;5.70;99.90;;;;;;4864692;29;19920;-86
2024/01/23 10:56:32;;;;;;;;;;;5.70;99.90;;;;;;4864949;29;20380;-87
2024/01/23 10:59:00;;;;;;;;;;;5.70;99.90;;;;;;4880541;29;20394;-86
2024/01/23 11:01:26;;;;;;;;;;;5.70;99.90;;;;;;4864542;29;19972;-87
2024/01/23 11:03:52;;;;;;;;;;;5.70;99.90;;;;;;4864492;29;19920;-86
2024/01/23 11:06:19;;;;;;;;;;;5.70;99.90;;;;;;4864571;29;19922;-86
2024/01/23 11:08:59;;;;;;;;;;;5.80;99.90;;;;;;4864645;29;19915;-86
2024/01/23 11:11:43;;;;;;;;;;;5.90;99.90;;;;;;4864691;29;20448;-86
2024/01/23 11:14:12;;;;;;;;;;;5.90;99.90;;;;;;4880239;29;20292;-86
2024/01/23 11:16:40;;;;;;;;;;;5.80;99.90;;;;;;4864899;29;19923;-86
2024/01/23 11:19:06;;;;;;;;;;;5.80;99.90;;;;;;4865199;29;19923;-86
2024/01/23 11:21:31;;;;;;;;;;;5.80;99.90;;;;;;4864238;29;19919;-86
2024/01/23 11:23:58;;;;;;;;;;;5.90;99.90;;;;;;4864903;29;19938;-86
2024/01/23 11:26:26;;;;;;;;;;;5.80;99.90;;;;;;4865558;29;20466;-87
2024/01/23 11:28:53;;;;;;;;;;;5.70;99.90;;;;;;4864799;29;20292;-86
2024/01/23 11:31:19;;;;;;;;;;;5.60;99.90;;;;;;4864603;29;19920;-86
2024/01/23 11:33:46;;;;;;;;;;;5.60;99.90;;;;;;4863790;29;19927;-85
2024/01/23 11:36:12;;;;;;;;;;;5.70;99.90;;;;;;4849256;29;19939;-87
2024/01/23 11:38:42;;;;;;;;;;;5.70;99.90;;;;;;4864320;29;19976;-87
2024/01/23 11:41:15;;;;;;;;;;;5.70;99.90;;;;;;4864498;29;19916;-87
2024/01/23 11:43:40;;;;;;;;;;;5.70;99.90;;;;;;4864733;29;19923;-88
2024/01/23 11:46:11;;;;;;;;;;;5.70;99.90;;;;;;4864217;29;19924;-84
2024/01/23 11:48:37;;;;;;;;;;;5.70;99.90;;;;;;4864533;29;19916;-84
2024/01/23 11:51:04;;;;;;;;;;;5.80;99.90;;;;;;4863797;29;19920;-84
2024/01/23 11:53:42;;;;;;;;;;;5.80;99.90;;;;;;4863575;29;20014;-84
2024/01/23 11:56:11;;;;;;;;;;;5.90;99.90;;;;;;4879151;29;20447;-86
2024/01/23 11:58:37;;;;;;;;;;;5.90;99.90;;;;;;4863432;29;19920;-84
2024/01/23 12:01:04;;;;;;;;;;;6.00;99.90;;;;;;4863917;29;20006;-84
2024/01/23 12:03:29;;;;;;;;;;;6.20;99.90;;;;;;4863972;29;19911;-85
2024/01/23 12:05:55;;;;;;;;;;;6.30;99.90;;;;;;4863855;29;20657;-87
2024/01/23 12:08:22;;;;;;;;;;;6.70;99.90;;;;;;4864218;29;19916;-84
2024/01/23 12:10:47;;;;;;;;;;;6.70;99.90;;;;;;4864310;29;19919;-85
2024/01/23 12:13:13;;;;;;;;;;;6.60;99.90;;;;;;4863661;29;20377;-87
2024/01/23 12:15:39;;;;;;;;;;;6.50;99.90;;;;;;4864168;29;19916;-86
2024/01/23 12:18:04;;;;;;;;;;;6.50;99.90;;;;;;4863858;29;20373;-85
2024/01/23 12:20:30;;;;;;;;;;;6.40;99.90;;;;;;4863987;29;20373;-86
2024/01/23 12:22:56;;;;;;;;;;;6.20;99.90;;;;;;4879996;29;19916;-85
2024/01/23 12:25:21;;;;;;;;;;;5.90;99.90;;;;;;4864216;29;19915;-85
2024/01/23 12:27:48;;;;;;;;;;;5.90;99.90;;;;;;4864375;29;20014;-85
2024/01/23 12:30:15;;;;;;;;;;;5.80;99.90;;;;;;4863998;29;20014;-85
2024/01/23 12:32:41;;;;;;;;;;;5.80;99.90;;;;;;4848239;29;20546;-84
2024/01/23 12:35:07;;;;;;;;;;;5.80;99.90;;;;;;4862902;29;19923;-85
2024/01/23 12:37:33;;;;;;;;;;;5.70;99.90;;;;;;4863311;29;20356;-86
2024/01/23 12:40:04;;;;;;;;;;;5.60;99.90;;;;;;4864363;29;20089;-86
2024/01/23 12:42:29;;;;;;;;;;;5.70;99.90;;;;;;4862463;29;19999;-85
2024/01/23 12:44:55;;;;;;;;;;;5.80;99.90;;;;;;4862686;29;19942;-85
2024/01/23 12:47:21;;;;;;;;;;;6.00;99.90;;;;;;4862868;29;19930;-86
2024/01/23 12:49:47;;;;;;;;;;;6.00;99.90;;;;;;4863675;29;19960;-85
2024/01/23 12:52:16;;;;;;;;;;;5.90;99.90;;;;;;4878791;29;19923;-85
2024/01/23 12:54:42;;;;;;;;;;;5.80;99.90;;;;;;4862785;29;19944;-85
2024/01/23 12:57:08;;;;;;;;;;;5.80;99.90;;;;;;4863428;29;19920;-85
2024/01/23 12:59:33;;;;;;;;;;;5.70;99.90;;;;;;4864146;29;20002;-86
2024/01/23 13:01:59;;;;;;;;;;;5.60;99.90;;;;;;4863767;29;20593;-84
2024/01/23 13:04:25;;;;;;;;;;;5.60;99.90;;;;;;4862811;29;20019;-85
2024/01/23 13:07:08;;;;;;;;;;;5.80;99.90;;;;;;4863097;29;20352;-84
2024/01/23 13:09:33;;;;;;;;;;;6.00;99.90;;;;;;4863704;29;19924;-85
2024/01/23 13:11:59;;;;;;;;;;;5.80;99.90;;;;;;4862918;29;20706;-85
2024/01/23 13:14:25;;;;;;;;;;;5.80;99.90;;;;;;4863837;29;19923;-84
2024/01/23 13:16:51;;;;;;;;;;;5.80;99.90;;;;;;4862977;29;19916;-85
2024/01/23 13:19:16;;;;;;;;;;;5.80;99.90;;;;;;4864020;29;20377;-84
2024/01/23 13:21:42;;;;;;;;;;;5.90;99.90;;;;;;4863035;29;19922;-86
2024/01/23 13:24:08;;;;;;;;;;;6.00;99.90;;;;;;4864280;29;20634;-85
2024/01/23 13:26:33;;;;;;;;;;;5.90;99.90;;;;;;4863331;29;20022;-81
2024/01/23 13:28:59;;;;;;;;;;;6.00;99.90;;;;;;4863479;29;20005;-85
2024/01/23 13:31:26;;;;;;;;;;;5.80;99.90;;;;;;4862608;29;19943;-85
2024/01/23 13:33:51;;;;;;;;;;;5.70;99.90;;;;;;4878292;29;19912;-85
2024/01/23 13:36:17;;;;;;;;;;;5.60;99.90;;;;;;4862281;29;20739;-84
2024/01/23 13:38:42;;;;;;;;;;;5.60;99.90;;;;;;4862563;29;19927;-85
2024/01/23 13:41:08;;;;;;;;;;;5.60;99.90;;;;;;4862999;29;19920;-84
2024/01/23 13:43:34;;;;;;;;;;;5.60;99.90;;;;;;4862596;29;19980;-84
2024/01/23 13:46:00;;;;;;;;;;;5.60;99.90;;;;;;4847204;29;20003;-85
2024/01/23 13:48:25;;;;;;;;;;;5.50;99.90;;;;;;4862880;29;19967;-84
2024/01/23 13:50:51;;;;;;;;;;;5.50;99.90;;;;;;4862364;29;19912;-85
2024/01/23 13:53:17;;;;;;;;;;;5.40;99.90;;;;;;4862669;29;19927;-85
2024/01/23 13:55:43;;;;;;;;;;;5.30;99.90;;;;;;4862446;29;19928;-85
2024/01/23 13:58:08;;;;;;;;;;;5.30;99.90;;;;;;4863073;29;20014;-85
2024/01/23 14:00:34;;;;;;;;;;;5.30;99.90;;;;;;4863351;29;20408;-84
2024/01/23 14:03:00;;;;;;;;;;;5.40;99.90;;;;;;4863128;29;20130;-85
2024/01/23 14:05:25;;;;;;;;;;;5.50;99.90;;;;;;4863227;29;19923;-84
2024/01/23 14:07:53;;;;;;;;;;;5.60;99.90;;;;;;4863874;29;19967;-87
2024/01/23 14:10:20;;;;;;;;;;;5.70;99.90;;;;;;4863583;29;19919;-87
2024/01/23 14:12:47;;;;;;;;;;;5.70;99.90;;;;;;4863227;29;19916;-84
2024/01/23 14:15:14;;;;;;;;;;;5.70;99.90;;;;;;4863863;29;19962;-85
2024/01/23 14:17:43;;;;;;;;;;;5.70;99.90;;;;;;4865390;29;20068;-86
2024/01/23 14:20:11;;;;;;;;;;;5.60;99.90;;;;;;4866522;29;20728;-86
2024/01/23 14:22:40;;;;;;;;;;;5.60;99.90;;;;;;4885811;29;19932;-86
2024/01/23 14:25:09;;;;;;;;;;;5.50;99.90;;;;;;4865538;29;19920;-85